sensor_id;sensor_type;location;lat;lon;timestamp;temperature;humidity
76291;DHT22;65100;46.884;17.410;2024-03-07T00:00:07;7.01;72.83
76291;DHT22;65100;46.884;17.410;2024-03-07T00:02:43;7.08;73.68
76291;DHT22;65100;46.884;17.410;2024-03-07T00:05:10;7.25;73.14
76291;DHT22;65100;46.884;17.410;2024-03-07T00:07:36;7.09;72.23
76291;DHT22;65100;46.884;17.410;2024-03-07T00:10:03;7.11;74.20
76291;DHT22;65100;46.884;17.410;2024-03-07T00:12:28;7.14;73.57
76291;DHT22;65100;46.884;17.410;2024-03-07T00:14:55;7.18;73.81
76291;DHT22;65100;46.884;17.410;2024-03-07T00:17:20;7.04;73.69
76291;DHT22;65100;46.884;17.410;2024-03-07T00:19:46;7.11;73.92
76291;DHT22;65100;46.884;17.410;2024-03-07T00:22:26;7.11;73.89
76291;DHT22;65100;46.884;17.410;2024-03-07T00:24:55;7.09;73.94
76291;DHT22;65100;46.884;17.410;2024-03-07T00:27:21;7.12;73.41
76291;DHT22;65100;46.884;17.410;2024-03-07T00:29:47;7.14;74.11
76291;DHT22;65100;46.884;17.410;2024-03-07T00:32:19;7.15;74.61
76291;DHT22;65100;46.884;17.410;2024-03-07T00:34:45;7.15;73.77
76291;DHT22;65100;46.884;17.410;2024-03-07T00:37:10;7.15;74.79
76291;DHT22;65100;46.884;17.410;2024-03-07T00:39:35;7.14;74.98
76291;DHT22;65100;46.884;17.410;2024-03-07T00:42:01;7.09;74.61
76291;DHT22;65100;46.884;17.410;2024-03-07T00:44:27;7.09;75.29
76291;DHT22;65100;46.884;17.410;2024-03-07T00:46:53;7.00;74.63
76291;DHT22;65100;46.884;17.410;2024-03-07T00:49:18;7.03;75.40
76291;DHT22;65100;46.884;17.410;2024-03-07T00:51:44;6.98;74.94
76291;DHT22;65100;46.884;17.410;2024-03-07T00:54:09;6.98;75.37
76291;DHT22;65100;46.884;17.410;2024-03-07T00:56:38;6.93;75.06
76291;DHT22;65100;46.884;17.410;2024-03-07T00:59:03;6.85;75.78
76291;DHT22;65100;46.884;17.410;2024-03-07T01:01:29;6.85;75.64
76291;DHT22;65100;46.884;17.410;2024-03-07T01:03:54;6.87;76.41
76291;DHT22;65100;46.884;17.410;2024-03-07T01:06:20;6.84;75.44
76291;DHT22;65100;46.884;17.410;2024-03-07T01:08:45;6.76;75.07
76291;DHT22;65100;46.884;17.410;2024-03-07T01:11:11;6.77;76.03
76291;DHT22;65100;46.884;17.410;2024-03-07T01:13:41;6.76;75.65
76291;DHT22;65100;46.884;17.410;2024-03-07T01:16:07;6.70;75.52
76291;DHT22;65100;46.884;17.410;2024-03-07T01:18:33;6.53;75.22
76291;DHT22;65100;46.884;17.410;2024-03-07T01:21:02;6.58;75.22
76291;DHT22;65100;46.884;17.410;2024-03-07T01:23:28;6.83;76.70
76291;DHT22;65100;46.884;17.410;2024-03-07T01:25:58;6.80;75.83
76291;DHT22;65100;46.884;17.410;2024-03-07T01:28:24;6.80;75.81
76291;DHT22;65100;46.884;17.410;2024-03-07T01:30:51;6.79;75.79
76291;DHT22;65100;46.884;17.410;2024-03-07T01:33:16;6.83;76.00
76291;DHT22;65100;46.884;17.410;2024-03-07T01:35:42;6.70;74.96
76291;DHT22;65100;46.884;17.410;2024-03-07T01:38:08;6.80;75.61
76291;DHT22;65100;46.884;17.410;2024-03-07T01:40:36;6.77;75.97
76291;DHT22;65100;46.884;17.410;2024-03-07T01:43:02;6.81;76.09
76291;DHT22;65100;46.884;17.410;2024-03-07T01:45:28;6.84;76.09
76291;DHT22;65100;46.884;17.410;2024-03-07T01:47:54;6.84;75.76
76291;DHT22;65100;46.884;17.410;2024-03-07T01:50:21;6.85;75.93
76291;DHT22;65100;46.884;17.410;2024-03-07T01:52:46;6.85;75.63
76291;DHT22;65100;46.884;17.410;2024-03-07T01:55:13;6.94;76.28
76291;DHT22;65100;46.884;17.410;2024-03-07T01:57:39;6.90;76.01
76291;DHT22;65100;46.884;17.410;2024-03-07T02:00:05;6.84;75.81
76291;DHT22;65100;46.884;17.410;2024-03-07T02:02:32;6.87;75.36
76291;DHT22;65100;46.884;17.410;2024-03-07T02:04:58;6.87;75.82
76291;DHT22;65100;46.884;17.410;2024-03-07T02:07:23;6.83;75.32
76291;DHT22;65100;46.884;17.410;2024-03-07T02:09:49;6.97;76.77
76291;DHT22;65100;46.884;17.410;2024-03-07T02:12:14;7.00;77.08
76291;DHT22;65100;46.884;17.410;2024-03-07T02:14:40;6.95;76.54
76291;DHT22;65100;46.884;17.410;2024-03-07T02:17:06;6.97;76.51
76291;DHT22;65100;46.884;17.410;2024-03-07T02:19:32;6.91;76.05
76291;DHT22;65100;46.884;17.410;2024-03-07T02:21:57;7.00;77.05
76291;DHT22;65100;46.884;17.410;2024-03-07T02:24:24;6.98;77.15
76291;DHT22;65100;46.884;17.410;2024-03-07T02:26:50;6.95;77.00
76291;DHT22;65100;46.884;17.410;2024-03-07T02:29:16;6.95;77.33
76291;DHT22;65100;46.884;17.410;2024-03-07T02:31:42;6.90;77.11
76291;DHT22;65100;46.884;17.410;2024-03-07T02:34:07;7.01;77.39
76291;DHT22;65100;46.884;17.410;2024-03-07T02:36:33;6.95;77.19
76291;DHT22;65100;46.884;17.410;2024-03-07T02:38:59;6.85;77.19
76291;DHT22;65100;46.884;17.410;2024-03-07T02:41:25;6.81;77.34
76291;DHT22;65100;46.884;17.410;2024-03-07T02:43:52;6.84;77.15
76291;DHT22;65100;46.884;17.410;2024-03-07T02:46:18;6.91;77.10
76291;DHT22;65100;46.884;17.410;2024-03-07T02:48:44;6.88;76.59
76291;DHT22;65100;46.884;17.410;2024-03-07T02:51:10;6.88;77.24
76291;DHT22;65100;46.884;17.410;2024-03-07T02:53:36;6.90;77.28
76291;DHT22;65100;46.884;17.410;2024-03-07T02:56:03;6.87;77.22
76291;DHT22;65100;46.884;17.410;2024-03-07T02:58:29;6.87;76.89
76291;DHT22;65100;46.884;17.410;2024-03-07T03:00:58;6.83;76.76
76291;DHT22;65100;46.884;17.410;2024-03-07T03:03:28;6.83;76.93
76291;DHT22;65100;46.884;17.410;2024-03-07T03:05:53;6.73;76.94
76291;DHT22;65100;46.884;17.410;2024-03-07T03:08:19;6.79;77.10
76291;DHT22;65100;46.884;17.410;2024-03-07T03:10:45;6.87;77.21
76291;DHT22;65100;46.884;17.410;2024-03-07T03:13:11;6.91;77.01
76291;DHT22;65100;46.884;17.410;2024-03-07T03:15:36;6.93;76.93
76291;DHT22;65100;46.884;17.410;2024-03-07T03:18:05;6.93;77.18
76291;DHT22;65100;46.884;17.410;2024-03-07T03:20:31;6.95;76.79
76291;DHT22;65100;46.884;17.410;2024-03-07T03:23:00;7.03;77.09
76291;DHT22;65100;46.884;17.410;2024-03-07T03:25:28;7.11;77.33
76291;DHT22;65100;46.884;17.410;2024-03-07T03:27:53;7.12;77.11
76291;DHT22;65100;46.884;17.410;2024-03-07T03:30:19;7.17;76.91
76291;DHT22;65100;46.884;17.410;2024-03-07T03:32:48;7.14;76.45
76291;DHT22;65100;46.884;17.410;2024-03-07T03:35:14;7.19;77.02
76291;DHT22;65100;46.884;17.410;2024-03-07T03:37:41;7.17;76.91
76291;DHT22;65100;46.884;17.410;2024-03-07T03:40:07;7.21;76.88
76291;DHT22;65100;46.884;17.410;2024-03-07T03:42:35;7.22;77.23
76291;DHT22;65100;46.884;17.410;2024-03-07T03:45:01;7.22;77.14
76291;DHT22;65100;46.884;17.410;2024-03-07T03:47:34;7.24;77.34
76291;DHT22;65100;46.884;17.410;2024-03-07T03:50:04;7.29;77.08
76291;DHT22;65100;46.884;17.410;2024-03-07T03:52:30;7.29;76.86
76291;DHT22;65100;46.884;17.410;2024-03-07T03:54:56;7.25;76.90
76291;DHT22;65100;46.884;17.410;2024-03-07T03:57:22;7.28;76.96
76291;DHT22;65100;46.884;17.410;2024-03-07T03:59:48;7.29;77.17
76291;DHT22;65100;46.884;17.410;2024-03-07T04:02:13;7.34;77.31
76291;DHT22;65100;46.884;17.410;2024-03-07T04:04:39;7.32;77.05
76291;DHT22;65100;46.884;17.410;2024-03-07T04:07:05;7.35;77.11
76291;DHT22;65100;46.884;17.410;2024-03-07T04:09:31;7.39;77.15
76291;DHT22;65100;46.884;17.410;2024-03-07T04:11:57;7.36;76.55
76291;DHT22;65100;46.884;17.410;2024-03-07T04:14:25;7.38;76.67
76291;DHT22;65100;46.884;17.410;2024-03-07T04:16:51;7.48;76.60
76291;DHT22;65100;46.884;17.410;2024-03-07T04:19:17;7.32;76.32
76291;DHT22;65100;46.884;17.410;2024-03-07T04:21:45;7.45;77.44
76291;DHT22;65100;46.884;17.410;2024-03-07T04:24:11;7.34;76.08
76291;DHT22;65100;46.884;17.410;2024-03-07T04:26:37;7.47;77.41
76291;DHT22;65100;46.884;17.410;2024-03-07T04:29:03;7.48;76.99
76291;DHT22;65100;46.884;17.410;2024-03-07T04:31:28;7.49;76.97
76291;DHT22;65100;46.884;17.410;2024-03-07T04:33:54;7.51;76.81
76291;DHT22;65100;46.884;17.410;2024-03-07T04:36:19;7.54;76.88
76291;DHT22;65100;46.884;17.410;2024-03-07T04:38:45;7.56;77.20
76291;DHT22;65100;46.884;17.410;2024-03-07T04:41:11;7.52;76.67
76291;DHT22;65100;46.884;17.410;2024-03-07T04:43:36;7.55;77.09
76291;DHT22;65100;46.884;17.410;2024-03-07T04:46:02;7.54;77.07
76291;DHT22;65100;46.884;17.410;2024-03-07T04:48:28;7.51;76.64
76291;DHT22;65100;46.884;17.410;2024-03-07T04:50:53;7.62;77.16
76291;DHT22;65100;46.884;17.410;2024-03-07T04:53:19;7.49;77.37
76291;DHT22;65100;46.884;17.410;2024-03-07T04:55:44;7.49;77.01
76291;DHT22;65100;46.884;17.410;2024-03-07T04:58:10;7.54;77.12
76291;DHT22;65100;46.884;17.410;2024-03-07T05:00:35;7.58;77.30
76291;DHT22;65100;46.884;17.410;2024-03-07T05:03:00;7.63;77.81
76291;DHT22;65100;46.884;17.410;2024-03-07T05:05:26;7.58;76.44
76291;DHT22;65100;46.884;17.410;2024-03-07T05:07:52;7.65;77.66
76291;DHT22;65100;46.884;17.410;2024-03-07T05:10:18;7.63;77.59
76291;DHT22;65100;46.884;17.410;2024-03-07T05:12:43;7.56;77.54
76291;DHT22;65100;46.884;17.410;2024-03-07T05:15:09;7.58;78.03
76291;DHT22;65100;46.884;17.410;2024-03-07T05:17:35;7.66;78.19
76291;DHT22;65100;46.884;17.410;2024-03-07T05:20:03;7.62;78.11
76291;DHT22;65100;46.884;17.410;2024-03-07T05:22:36;7.62;78.05
76291;DHT22;65100;46.884;17.410;2024-03-07T05:25:04;7.59;78.54
76291;DHT22;65100;46.884;17.410;2024-03-07T05:27:31;7.59;78.27
76291;DHT22;65100;46.884;17.410;2024-03-07T05:29:56;7.58;78.46
76291;DHT22;65100;46.884;17.410;2024-03-07T05:32:25;7.61;78.84
76291;DHT22;65100;46.884;17.410;2024-03-07T05:34:53;7.51;78.63
76291;DHT22;65100;46.884;17.410;2024-03-07T05:37:20;7.51;78.15
76291;DHT22;65100;46.884;17.410;2024-03-07T05:39:48;7.48;78.76
76291;DHT22;65100;46.884;17.410;2024-03-07T05:42:13;7.52;79.01
76291;DHT22;65100;46.884;17.410;2024-03-07T05:44:39;7.51;78.97
76291;DHT22;65100;46.884;17.410;2024-03-07T05:47:05;7.51;79.19
76291;DHT22;65100;46.884;17.410;2024-03-07T05:49:30;7.47;79.00
76291;DHT22;65100;46.884;17.410;2024-03-07T05:51:56;7.47;79.13
76291;DHT22;65100;46.884;17.410;2024-03-07T05:54:23;7.49;79.07
76291;DHT22;65100;46.884;17.410;2024-03-07T05:56:48;7.52;79.28
76291;DHT22;65100;46.884;17.410;2024-03-07T05:59:14;7.48;78.70
76291;DHT22;65100;46.884;17.410;2024-03-07T06:01:39;7.38;78.66
76291;DHT22;65100;46.884;17.410;2024-03-07T06:04:06;7.36;78.62
76291;DHT22;65100;46.884;17.410;2024-03-07T06:06:33;7.29;78.40
76291;DHT22;65100;46.884;17.410;2024-03-07T06:09:04;7.27;78.74
76291;DHT22;65100;46.884;17.410;2024-03-07T06:11:39;7.25;78.39
76291;DHT22;65100;46.884;17.410;2024-03-07T06:14:08;7.31;78.59
76291;DHT22;65100;46.884;17.410;2024-03-07T06:16:37;7.27;78.98
76291;DHT22;65100;46.884;17.410;2024-03-07T06:19:04;7.36;80.19
76291;DHT22;65100;46.884;17.410;2024-03-07T06:21:33;7.39;79.69
76291;DHT22;65100;46.884;17.410;2024-03-07T06:23:59;7.51;80.38
76291;DHT22;65100;46.884;17.410;2024-03-07T06:26:31;7.47;81.36
76291;DHT22;65100;46.884;17.410;2024-03-07T06:29:06;7.47;80.02
76291;DHT22;65100;46.884;17.410;2024-03-07T06:31:33;7.38;80.60
76291;DHT22;65100;46.884;17.410;2024-03-07T06:34:00;7.48;80.97
76291;DHT22;65100;46.884;17.410;2024-03-07T06:36:25;7.47;81.32
76291;DHT22;65100;46.884;17.410;2024-03-07T06:38:51;7.34;79.86
76291;DHT22;65100;46.884;17.410;2024-03-07T06:41:16;7.34;80.12
76291;DHT22;65100;46.884;17.410;2024-03-07T06:43:45;7.25;79.80
76291;DHT22;65100;46.884;17.410;2024-03-07T06:46:11;7.25;80.06
76291;DHT22;65100;46.884;17.410;2024-03-07T06:48:40;7.15;79.97
76291;DHT22;65100;46.884;17.410;2024-03-07T06:54:51;7.15;81.43
76291;DHT22;65100;46.884;17.410;2024-03-07T06:57:17;7.24;83.14
76291;DHT22;65100;46.884;17.410;2024-03-07T06:59:42;7.14;81.52
76291;DHT22;65100;46.884;17.410;2024-03-07T07:02:08;7.19;81.37
76291;DHT22;65100;46.884;17.410;2024-03-07T07:04:33;7.15;81.44
76291;DHT22;65100;46.884;17.410;2024-03-07T07:07:08;7.05;81.28
76291;DHT22;65100;46.884;17.410;2024-03-07T07:10:08;7.05;81.72
76291;DHT22;65100;46.884;17.410;2024-03-07T07:12:42;7.11;83.08
76291;DHT22;65100;46.884;17.410;2024-03-07T07:15:09;7.12;82.04
76291;DHT22;65100;46.884;17.410;2024-03-07T07:17:35;6.95;80.99
76291;DHT22;65100;46.884;17.410;2024-03-07T07:20:01;6.94;81.85
76291;DHT22;65100;46.884;17.410;2024-03-07T07:22:26;6.83;81.35
76291;DHT22;65100;46.884;17.410;2024-03-07T07:24:52;6.69;81.42
76291;DHT22;65100;46.884;17.410;2024-03-07T07:27:17;6.74;82.00
76291;DHT22;65100;46.884;17.410;2024-03-07T07:29:44;6.76;81.88
76291;DHT22;65100;46.884;17.410;2024-03-07T07:32:10;6.70;81.87
76291;DHT22;65100;46.884;17.410;2024-03-07T07:34:37;6.71;81.96
76291;DHT22;65100;46.884;17.410;2024-03-07T07:37:04;6.69;81.85
76291;DHT22;65100;46.884;17.410;2024-03-07T07:39:29;6.64;81.99
76291;DHT22;65100;46.884;17.410;2024-03-07T07:41:57;6.63;82.35
76291;DHT22;65100;46.884;17.410;2024-03-07T07:44:22;6.61;81.93
76291;DHT22;65100;46.884;17.410;2024-03-07T07:46:48;6.50;81.77
76291;DHT22;65100;46.884;17.410;2024-03-07T07:49:15;6.56;82.11
76291;DHT22;65100;46.884;17.410;2024-03-07T07:51:41;6.47;82.49
76291;DHT22;65100;46.884;17.410;2024-03-07T07:54:07;6.51;82.66
76291;DHT22;65100;46.884;17.410;2024-03-07T07:56:35;6.37;82.65
76291;DHT22;65100;46.884;17.410;2024-03-07T07:59:01;6.32;83.66
76291;DHT22;65100;46.884;17.410;2024-03-07T08:01:26;6.32;82.77
76291;DHT22;65100;46.884;17.410;2024-03-07T08:03:52;6.37;82.09
76291;DHT22;65100;46.884;17.410;2024-03-07T08:06:18;6.34;83.06
76291;DHT22;65100;46.884;17.410;2024-03-07T08:08:44;6.37;82.97
76291;DHT22;65100;46.884;17.410;2024-03-07T08:11:09;6.37;83.20
76291;DHT22;65100;46.884;17.410;2024-03-07T08:13:37;6.37;83.05
76291;DHT22;65100;46.884;17.410;2024-03-07T08:16:02;6.36;83.39
76291;DHT22;65100;46.884;17.410;2024-03-07T08:18:28;6.36;82.82
76291;DHT22;65100;46.884;17.410;2024-03-07T08:20:54;6.37;83.05
76291;DHT22;65100;46.884;17.410;2024-03-07T08:23:20;6.29;83.47
76291;DHT22;65100;46.884;17.410;2024-03-07T08:25:47;6.22;83.19
76291;DHT22;65100;46.884;17.410;2024-03-07T08:28:13;6.22;84.16
76291;DHT22;65100;46.884;17.410;2024-03-07T08:30:39;6.29;84.78
76291;DHT22;65100;46.884;17.410;2024-03-07T08:33:04;6.41;84.78
76291;DHT22;65100;46.884;17.410;2024-03-07T08:35:30;6.39;84.59
76291;DHT22;65100;46.884;17.410;2024-03-07T08:37:56;6.43;84.14
76291;DHT22;65100;46.884;17.410;2024-03-07T08:40:27;6.53;84.75
76291;DHT22;65100;46.884;17.410;2024-03-07T08:42:58;6.49;84.16
76291;DHT22;65100;46.884;17.410;2024-03-07T08:45:27;6.61;85.44
76291;DHT22;65100;46.884;17.410;2024-03-07T08:47:54;6.84;87.06
76291;DHT22;65100;46.884;17.410;2024-03-07T08:50:20;7.11;87.94
76291;DHT22;65100;46.884;17.410;2024-03-07T08:52:47;7.27;86.21
76291;DHT22;65100;46.884;17.410;2024-03-07T08:55:19;7.18;84.44
76291;DHT22;65100;46.884;17.410;2024-03-07T08:57:45;7.32;85.01
76291;DHT22;65100;46.884;17.410;2024-03-07T09:00:12;7.49;85.09
76291;DHT22;65100;46.884;17.410;2024-03-07T09:02:48;7.62;84.42
76291;DHT22;65100;46.884;17.410;2024-03-07T09:05:15;7.66;84.49
76291;DHT22;65100;46.884;17.410;2024-03-07T09:07:41;7.72;83.47
76291;DHT22;65100;46.884;17.410;2024-03-07T09:10:07;7.76;84.70
76291;DHT22;65100;46.884;17.410;2024-03-07T09:12:32;7.78;83.62
76291;DHT22;65100;46.884;17.410;2024-03-07T09:14:58;7.82;83.02
76291;DHT22;65100;46.884;17.410;2024-03-07T09:17:23;7.87;84.21
76291;DHT22;65100;46.884;17.410;2024-03-07T09:19:49;7.89;83.43
76291;DHT22;65100;46.884;17.410;2024-03-07T09:22:15;7.87;83.61
76291;DHT22;65100;46.884;17.410;2024-03-07T09:24:40;7.82;82.34
76291;DHT22;65100;46.884;17.410;2024-03-07T09:27:06;7.85;82.91
76291;DHT22;65100;46.884;17.410;2024-03-07T09:29:32;7.79;82.48
76291;DHT22;65100;46.884;17.410;2024-03-07T09:31:57;7.68;82.65
76291;DHT22;65100;46.884;17.410;2024-03-07T09:34:24;7.65;81.85
76291;DHT22;65100;46.884;17.410;2024-03-07T09:36:50;7.52;81.66
76291;DHT22;65100;46.884;17.410;2024-03-07T09:39:16;7.47;81.02
76291;DHT22;65100;46.884;17.410;2024-03-07T09:41:42;7.54;82.92
76291;DHT22;65100;46.884;17.410;2024-03-07T09:44:09;7.65;84.50
76291;DHT22;65100;46.884;17.410;2024-03-07T09:46:38;7.66;82.58
76291;DHT22;65100;46.884;17.410;2024-03-07T09:49:04;7.71;82.12
76291;DHT22;65100;46.884;17.410;2024-03-07T09:51:34;7.75;82.24
76291;DHT22;65100;46.884;17.410;2024-03-07T09:54:01;7.75;81.85
76291;DHT22;65100;46.884;17.410;2024-03-07T09:56:27;7.71;81.52
76291;DHT22;65100;46.884;17.410;2024-03-07T09:59:04;7.66;81.00
76291;DHT22;65100;46.884;17.410;2024-03-07T10:01:33;7.55;80.49
76291;DHT22;65100;46.884;17.410;2024-03-07T10:04:13;7.68;81.74
76291;DHT22;65100;46.884;17.410;2024-03-07T10:06:40;7.76;82.01
76291;DHT22;65100;46.884;17.410;2024-03-07T10:09:07;7.79;81.77
76291;DHT22;65100;46.884;17.410;2024-03-07T10:11:33;7.79;81.19
76291;DHT22;65100;46.884;17.410;2024-03-07T10:13:59;7.81;81.72
76291;DHT22;65100;46.884;17.410;2024-03-07T10:16:25;7.71;81.15
76291;DHT22;65100;46.884;17.410;2024-03-07T10:18:50;7.75;82.30
76291;DHT22;65100;46.884;17.410;2024-03-07T10:21:25;7.75;81.65
76291;DHT22;65100;46.884;17.410;2024-03-07T10:23:50;7.79;81.82
76291;DHT22;65100;46.884;17.410;2024-03-07T10:26:28;7.81;81.31
76291;DHT22;65100;46.884;17.410;2024-03-07T10:28:55;7.87;81.79
76291;DHT22;65100;46.884;17.410;2024-03-07T10:31:33;7.82;80.44
76291;DHT22;65100;46.884;17.410;2024-03-07T10:34:03;7.69;80.98
76291;DHT22;65100;46.884;17.410;2024-03-07T10:36:32;7.90;83.83
76291;DHT22;65100;46.884;17.410;2024-03-07T10:38:58;7.90;82.02
76291;DHT22;65100;46.884;17.410;2024-03-07T10:41:46;7.82;80.72
76291;DHT22;65100;46.884;17.410;2024-03-07T10:46:45;7.58;79.63
76291;DHT22;65100;46.884;17.410;2024-03-07T10:49:15;7.58;80.05
76291;DHT22;65100;46.884;17.410;2024-03-07T10:51:46;7.54;79.75
76291;DHT22;65100;46.884;17.410;2024-03-07T10:54:28;7.45;79.76
76291;DHT22;65100;46.884;17.410;2024-03-07T11:00:04;7.38;81.29
76291;DHT22;65100;46.884;17.410;2024-03-07T11:02:50;7.27;81.42
76291;DHT22;65100;46.884;17.410;2024-03-07T11:05:21;7.27;80.20
76291;DHT22;65100;46.884;17.410;2024-03-07T11:07:50;7.25;80.57
76291;DHT22;65100;46.884;17.410;2024-03-07T11:10:18;7.18;80.09
76291;DHT22;65100;46.884;17.410;2024-03-07T11:12:45;7.11;80.27
76291;DHT22;65100;46.884;17.410;2024-03-07T11:15:13;7.03;79.92
76291;DHT22;65100;46.884;17.410;2024-03-07T11:17:49;7.05;81.60
76291;DHT22;65100;46.884;17.410;2024-03-07T11:20:35;7.08;81.59
76291;DHT22;65100;46.884;17.410;2024-03-07T11:23:01;7.12;82.64
76291;DHT22;65100;46.884;17.410;2024-03-07T11:25:47;7.12;81.38
76291;DHT22;65100;46.884;17.410;2024-03-07T11:28:15;7.22;80.80
76291;DHT22;65100;46.884;17.410;2024-03-07T11:30:41;7.09;80.20
76291;DHT22;65100;46.884;17.410;2024-03-07T11:33:10;7.08;80.42
76291;DHT22;65100;46.884;17.410;2024-03-07T11:35:39;7.07;79.79
76291;DHT22;65100;46.884;17.410;2024-03-07T11:38:08;7.19;80.79
76291;DHT22;65100;46.884;17.410;2024-03-07T11:43:04;7.17;81.15
76291;DHT22;65100;46.884;17.410;2024-03-07T11:45:31;7.19;80.31
76291;DHT22;65100;46.884;17.410;2024-03-07T11:48:04;7.32;81.82
76291;DHT22;65100;46.884;17.410;2024-03-07T11:50:34;7.44;81.97
76291;DHT22;65100;46.884;17.410;2024-03-07T11:53:04;7.56;82.37
76291;DHT22;65100;46.884;17.410;2024-03-07T11:55:39;7.63;81.65
76291;DHT22;65100;46.884;17.410;2024-03-07T11:58:20;7.69;82.98
76291;DHT22;65100;46.884;17.410;2024-03-07T12:00:51;7.78;82.73
76291;DHT22;65100;46.884;17.410;2024-03-07T12:03:19;7.83;81.35
76291;DHT22;65100;46.884;17.410;2024-03-07T12:05:51;7.90;81.98
76291;DHT22;65100;46.884;17.410;2024-03-07T12:08:17;7.93;82.31
76291;DHT22;65100;46.884;17.410;2024-03-07T12:10:44;7.94;81.18
76291;DHT22;65100;46.884;17.410;2024-03-07T12:13:13;8.04;81.66
76291;DHT22;65100;46.884;17.410;2024-03-07T12:15:43;8.02;81.11
76291;DHT22;65100;46.884;17.410;2024-03-07T12:18:09;8.10;80.47
76291;DHT22;65100;46.884;17.410;2024-03-07T12:20:40;8.19;80.86
76291;DHT22;65100;46.884;17.410;2024-03-07T12:23:06;8.32;80.52
76291;DHT22;65100;46.884;17.410;2024-03-07T12:25:37;8.30;80.14
76291;DHT22;65100;46.884;17.410;2024-03-07T12:28:03;8.36;79.27
76291;DHT22;65100;46.884;17.410;2024-03-07T12:30:47;8.32;79.67
76291;DHT22;65100;46.884;17.410;2024-03-07T12:33:13;8.29;78.89
76291;DHT22;65100;46.884;17.410;2024-03-07T12:35:49;8.33;79.37
76291;DHT22;65100;46.884;17.410;2024-03-07T12:38:18;8.26;79.49
76291;DHT22;65100;46.884;17.410;2024-03-07T12:40:44;8.17;79.08
76291;DHT22;65100;46.884;17.410;2024-03-07T12:43:16;8.17;79.08
76291;DHT22;65100;46.884;17.410;2024-03-07T12:45:48;8.06;78.64
76291;DHT22;65100;46.884;17.410;2024-03-07T12:48:14;7.99;78.20
76291;DHT22;65100;46.884;17.410;2024-03-07T12:50:40;7.92;78.75
76291;DHT22;65100;46.884;17.410;2024-03-07T12:53:06;7.94;79.71
76291;DHT22;65100;46.884;17.410;2024-03-07T12:55:40;7.96;79.57
76291;DHT22;65100;46.884;17.410;2024-03-07T12:58:09;7.92;79.39
76291;DHT22;65100;46.884;17.410;2024-03-07T13:00:37;8.06;82.80
76291;DHT22;65100;46.884;17.410;2024-03-07T13:03:03;8.03;80.27
76291;DHT22;65100;46.884;17.410;2024-03-07T13:15:35;8.26;78.69
76291;DHT22;65100;46.884;17.410;2024-03-07T13:18:03;8.43;80.68
76291;DHT22;65100;46.884;17.410;2024-03-07T13:20:31;8.43;80.50
76291;DHT22;65100;46.884;17.410;2024-03-07T13:36:34;8.30;77.09
76291;DHT22;65100;46.884;17.410;2024-03-07T13:39:03;8.32;78.94
76291;DHT22;65100;46.884;17.410;2024-03-07T13:41:28;8.23;76.33
76291;DHT22;65100;46.884;17.410;2024-03-07T13:43:55;8.14;76.92
76291;DHT22;65100;46.884;17.410;2024-03-07T13:46:21;8.26;76.84
76291;DHT22;65100;46.884;17.410;2024-03-07T13:48:47;8.30;76.78
76291;DHT22;65100;46.884;17.410;2024-03-07T13:51:12;8.43;78.97
76291;DHT22;65100;46.884;17.410;2024-03-07T13:53:41;8.48;79.12
76291;DHT22;65100;46.884;17.410;2024-03-07T14:07:40;8.02;78.59
76291;DHT22;65100;46.884;17.410;2024-03-07T14:13:39;7.86;77.98
76291;DHT22;65100;46.884;17.410;2024-03-07T14:22:09;8.06;82.13
76291;DHT22;65100;46.884;17.410;2024-03-07T14:27:58;8.19;80.45
76291;DHT22;65100;46.884;17.410;2024-03-07T14:33:05;7.96;78.31
76291;DHT22;65100;46.884;17.410;2024-03-07T14:38:26;7.92;78.11
76291;DHT22;65100;46.884;17.410;2024-03-07T14:40:52;7.83;78.05
76291;DHT22;65100;46.884;17.410;2024-03-07T14:43:19;7.82;78.93
76291;DHT22;65100;46.884;17.410;2024-03-07T14:45:46;7.82;80.03
76291;DHT22;65100;46.884;17.410;2024-03-07T14:48:13;7.81;80.35
76291;DHT22;65100;46.884;17.410;2024-03-07T14:50:45;7.78;79.79
76291;DHT22;65100;46.884;17.410;2024-03-07T14:53:12;7.66;78.96
76291;DHT22;65100;46.884;17.410;2024-03-07T14:55:39;7.63;80.76
76291;DHT22;65100;46.884;17.410;2024-03-07T14:58:06;7.63;81.20
76291;DHT22;65100;46.884;17.410;2024-03-07T15:00:36;7.65;81.86
76291;DHT22;65100;46.884;17.410;2024-03-07T15:03:07;7.68;81.37
76291;DHT22;65100;46.884;17.410;2024-03-07T15:05:34;7.59;79.74
76291;DHT22;65100;46.884;17.410;2024-03-07T15:08:00;7.65;81.40
76291;DHT22;65100;46.884;17.410;2024-03-07T15:10:32;7.65;81.09
76291;DHT22;65100;46.884;17.410;2024-03-07T15:12:59;7.65;81.44
76291;DHT22;65100;46.884;17.410;2024-03-07T15:15:25;7.63;81.84
76291;DHT22;65100;46.884;17.410;2024-03-07T15:17:53;7.61;81.55
76291;DHT22;65100;46.884;17.410;2024-03-07T15:20:19;7.61;82.17
76291;DHT22;65100;46.884;17.410;2024-03-07T15:23:00;7.65;82.59
76291;DHT22;65100;46.884;17.410;2024-03-07T15:25:27;7.62;81.25
76291;DHT22;65100;46.884;17.410;2024-03-07T15:27:55;7.58;81.17
76291;DHT22;65100;46.884;17.410;2024-03-07T15:30:22;7.56;82.03
76291;DHT22;65100;46.884;17.410;2024-03-07T15:32:50;7.51;81.72
76291;DHT22;65100;46.884;17.410;2024-03-07T15:35:17;7.47;81.72
76291;DHT22;65100;46.884;17.410;2024-03-07T15:37:48;7.38;81.77
76291;DHT22;65100;46.884;17.410;2024-03-07T15:40:17;7.42;82.81
76291;DHT22;65100;46.884;17.410;2024-03-07T15:42:47;7.55;85.05
76291;DHT22;65100;46.884;17.410;2024-03-07T15:45:23;7.61;85.64
76291;DHT22;65100;46.884;17.410;2024-03-07T15:47:51;7.66;83.91
76291;DHT22;65100;46.884;17.410;2024-03-07T15:50:17;7.62;84.15
76291;DHT22;65100;46.884;17.410;2024-03-07T15:52:50;7.48;82.95
76291;DHT22;65100;46.884;17.410;2024-03-07T15:55:19;7.24;81.15
76291;DHT22;65100;46.884;17.410;2024-03-07T15:57:53;7.36;82.74
76291;DHT22;65100;46.884;17.410;2024-03-07T16:00:24;7.27;82.29
76291;DHT22;65100;46.884;17.410;2024-03-07T16:03:03;7.18;82.30
76291;DHT22;65100;46.884;17.410;2024-03-07T16:05:31;7.19;83.17
76291;DHT22;65100;46.884;17.410;2024-03-07T16:07:58;7.21;83.53
76291;DHT22;65100;46.884;17.410;2024-03-07T16:10:29;7.19;82.90
76291;DHT22;65100;46.884;17.410;2024-03-07T16:12:59;7.18;83.05
76291;DHT22;65100;46.884;17.410;2024-03-07T16:15:26;7.18;82.86
76291;DHT22;65100;46.884;17.410;2024-03-07T16:17:53;7.11;82.18
76291;DHT22;65100;46.884;17.410;2024-03-07T16:20:23;7.09;83.38
76291;DHT22;65100;46.884;17.410;2024-03-07T16:22:49;7.00;82.91
76291;DHT22;65100;46.884;17.410;2024-03-07T16:25:17;7.05;83.52
76291;DHT22;65100;46.884;17.410;2024-03-07T16:27:44;7.00;83.87
76291;DHT22;65100;46.884;17.410;2024-03-07T16:30:15;6.93;81.69
76291;DHT22;65100;46.884;17.410;2024-03-07T16:32:42;6.84;82.58
76291;DHT22;65100;46.884;17.410;2024-03-07T16:35:08;6.76;82.35
76291;DHT22;65100;46.884;17.410;2024-03-07T16:37:44;6.79;82.75